Change the Weather History Date:

Monday, August 12, 2013

  Actual Average Record
Temperature  
Mean Temperature 80 °F -  
Max Temperature 95 °F 97 °F 109 °F (2002)
Min Temperature 66 °F 68 °F 56 °F (1985)
Cooling Degree Days 16    
Growing Degree Days 30 (Base 50)    
Moisture  
Dew Point 38 °F    
Average Humidity 23    
Maximum Humidity 38    
Minimum Humidity 10    
Precipitation  
Precipitation 0.00 in - - ()
Sea Level Pressure  
Sea Level Pressure 29.97 in    
Wind  
Wind Speed 14 mph (WNW)    
Max Wind Speed 28 mph    
Max Gust Speed 36 mph    
Visibility 10 miles    
Events      
Averages and records for this station are not official NWS values.
T = Trace of Precipitation, MM = Missing Value Source: NWS Daily Summary

Daily Weather History Graph

Daily Weather History Graph

Search for Another Location

Airport or City:

Trip Planner

Search our weather history database for the weather conditions in past years. The results will help you decide how hot, cold, wet, or windy it might be!

Date:

Astronomy

Aug. 12, 2013 Rise Set
Actual Time 6:10 AM PDT 7:44 PM PDT
Civil Twilight 5:43 AM PDT 8:11 PM PDT
Nautical Twilight 5:11 AM PDT 8:43 PM PDT
Astronomical Twilight 4:36 AM PDT 9:17 PM PDT
Moon 11:50 AM PDT (8/12) 10:57 PM PDT (8/12)
Length of Visible Light 14h 27m
Length of Day
13h 33m
Waxing Crescent, 32% of the Moon is Illuminated
Aug 12
Waxing Crescent
Aug 14
First Quarter
Aug 20
Full
Aug 28
Last Quarter
Sep 5
New

Hourly Weather History & Observations

Time (PDT) Temp. Dew Point Humidity Pressure Visibility Wind Dir Wind Speed Gust Speed Precip Events Conditions
12:15 AM 75.2 °F 39.2 °F 27% 29.96 in 10.0 mi West 23.0 mph - N/A   Clear
12:35 AM 75.2 °F 39.2 °F 27% 29.96 in 10.0 mi WNW 20.7 mph 25.3 mph N/A   Clear
12:55 AM 73.4 °F 41.0 °F 31% 29.96 in 10.0 mi WNW 21.9 mph - N/A   Clear
1:15 AM 73.4 °F 41.0 °F 31% 29.96 in 10.0 mi NW 19.6 mph - N/A   Clear
1:35 AM 73.4 °F 41.0 °F 31% 29.97 in 10.0 mi NW 13.8 mph 20.7 mph N/A   Clear
1:55 AM 73.4 °F 41.0 °F 31% 29.96 in 10.0 mi West 18.4 mph - N/A   Clear
2:15 AM 73.4 °F 42.8 °F 33% 29.96 in 10.0 mi NW 16.1 mph 21.9 mph N/A   Clear
2:35 AM 73.4 °F 42.8 °F 33% 29.96 in 10.0 mi NW 16.1 mph 19.6 mph N/A   Clear
2:55 AM 73.4 °F 44.6 °F 36% 29.96 in 10.0 mi NW 10.4 mph - N/A   Clear
3:15 AM 71.6 °F 44.6 °F 38% 29.96 in 10.0 mi NNW 11.5 mph - N/A   Clear
3:35 AM 71.6 °F 44.6 °F 38% 29.96 in 10.0 mi NNW 13.8 mph - N/A   Clear
3:55 AM 71.6 °F 42.8 °F 35% 29.96 in 10.0 mi NW 9.2 mph - N/A   Clear
4:15 AM 71.6 °F 42.8 °F 35% 29.96 in 10.0 mi NW 9.2 mph - N/A   Clear
4:35 AM 71.6 °F 37.4 °F 29% 29.96 in 10.0 mi North 8.1 mph - N/A   Clear
4:55 AM 71.6 °F 37.4 °F 29% 29.97 in 10.0 mi NE 5.8 mph - N/A   Clear
5:15 AM 71.6 °F 39.2 °F 31% 29.97 in 10.0 mi NNW 3.5 mph - N/A   Clear
5:35 AM 69.8 °F 37.4 °F 31% 29.97 in 10.0 mi Calm Calm - N/A   Clear
5:55 AM 68.0 °F 37.4 °F 33% 29.98 in 10.0 mi North 4.6 mph - N/A   Clear
6:15 AM 66.2 °F 37.4 °F 35% 29.98 in 9.0 mi NE 3.5 mph - N/A   Clear
6:35 AM 68.0 °F 39.2 °F 35% 29.98 in 10.0 mi Calm Calm - N/A   Clear
6:55 AM 69.8 °F 39.2 °F 33% 29.99 in 10.0 mi North 3.5 mph - N/A   Clear
7:15 AM 71.6 °F 39.2 °F 31% 29.99 in 10.0 mi Calm Calm - N/A   Clear
7:35 AM 73.4 °F 39.2 °F 29% 29.99 in 10.0 mi Calm Calm - N/A   Clear
7:55 AM 73.4 °F 39.2 °F 29% 29.99 in 10.0 mi ESE 3.5 mph - N/A   Clear
8:15 AM 75.2 °F 39.2 °F 27% 30.00 in 10.0 mi SE 5.8 mph - N/A   Clear
8:35 AM 75.2 °F 39.2 °F 27% 30.01 in 10.0 mi SE 5.8 mph - N/A   Clear
8:55 AM 77.0 °F 39.2 °F 26% 30.01 in 10.0 mi SE 3.5 mph - N/A   Clear
9:15 AM 77.0 °F 39.2 °F 26% 30.01 in 10.0 mi ESE 3.5 mph - N/A   Clear
9:35 AM 80.6 °F 39.2 °F 23% 30.02 in 10.0 mi ESE 4.6 mph - N/A   Clear
9:55 AM 80.6 °F 39.2 °F 23% 30.02 in 10.0 mi SE 3.5 mph - N/A   Clear
10:15 AM 82.4 °F 39.2 °F 21% 30.02 in 10.0 mi Calm Calm - N/A   Clear
10:35 AM 82.4 °F 39.2 °F 21% 30.02 in 10.0 mi Calm Calm - N/A   Clear
10:55 AM 84.2 °F 39.2 °F 20% 30.02 in 10.0 mi SSE 4.6 mph - N/A   Clear
11:15 AM 84.2 °F 39.2 °F 20% 30.01 in 10.0 mi NE 5.8 mph - N/A   Clear
11:35 AM 86.0 °F 37.4 °F 18% 30.01 in 10.0 mi SE 9.2 mph - N/A   Clear
11:55 AM 86.0 °F 39.2 °F 19% 30.01 in 10.0 mi ENE 4.6 mph - N/A   Clear
12:15 PM 89.6 °F 37.4 °F 16% 30.00 in 10.0 mi North 3.5 mph - N/A   Clear
12:35 PM 89.6 °F 35.6 °F 15% 30.00 in 10.0 mi SSW 6.9 mph - N/A   Clear
12:55 PM 89.6 °F 35.6 °F 15% 29.99 in 10.0 mi Calm Calm - N/A   Clear
1:15 PM 91.4 °F 33.8 °F 13% 29.99 in 10.0 mi Calm Calm - N/A   Clear
1:35 PM 93.2 °F 33.8 °F 12% 29.98 in 10.0 mi Calm Calm - N/A   Clear
1:55 PM 91.4 °F 32.0 °F 12% 29.97 in 10.0 mi ESE 6.9 mph - N/A   Clear
2:15 PM 93.2 °F 32.0 °F 11% 29.97 in 10.0 mi WSW 5.8 mph - N/A   Clear
2:35 PM 95.0 °F 32.0 °F 11% 29.96 in 10.0 mi SSW 8.1 mph - N/A   Clear
2:55 PM 93.2 °F 28.4 °F 10% 29.95 in 10.0 mi SSW 5.8 mph - N/A   Clear
3:15 PM 95.0 °F 37.4 °F 13% 29.95 in 10.0 mi West 15.0 mph - N/A   Clear
3:35 PM 95.0 °F 37.4 °F 13% 29.95 in 10.0 mi West 15.0 mph 25.3 mph N/A   Clear
3:55 PM 95.0 °F 35.6 °F 12% 29.94 in 10.0 mi WNW 17.3 mph 23.0 mph N/A   Clear
4:15 PM 95.0 °F 39.2 °F 14% 29.94 in 10.0 mi West 19.6 mph 25.3 mph N/A   Clear
4:35 PM 93.2 °F 39.2 °F 15% 29.94 in 10.0 mi West 19.6 mph 25.3 mph N/A   Clear
4:55 PM 93.2 °F 39.2 °F 15% 29.94 in 10.0 mi West 19.6 mph - N/A   Clear
5:15 PM 91.4 °F 39.2 °F 16% 29.93 in 10.0 mi West 19.6 mph - N/A   Clear
5:35 PM 91.4 °F 39.2 °F 16% 29.93 in 10.0 mi West 26.5 mph - N/A   Clear
5:55 PM 89.6 °F 39.2 °F 17% 29.93 in 10.0 mi West 21.9 mph 29.9 mph N/A   Clear
6:15 PM 89.6 °F 39.2 °F 17% 29.93 in 10.0 mi West 24.2 mph - N/A   Clear
6:35 PM 87.8 °F 37.4 °F 17% 29.93 in 10.0 mi West 24.2 mph 29.9 mph N/A   Clear
6:55 PM 86.0 °F 37.4 °F 18% 29.93 in 10.0 mi West 25.3 mph 31.1 mph N/A   Clear
7:15 PM 84.2 °F 39.2 °F 20% 29.93 in 10.0 mi West 25.3 mph 32.2 mph N/A   Clear
7:35 PM 82.4 °F 39.2 °F 21% 29.94 in 10.0 mi West 23.0 mph 31.1 mph N/A   Clear
7:55 PM 82.4 °F 39.2 °F 21% 29.94 in 10.0 mi WNW 23.0 mph 34.5 mph N/A   Clear
8:15 PM 80.6 °F 39.2 °F 23% 29.95 in 10.0 mi West 26.5 mph 32.2 mph N/A   Clear
8:35 PM 80.6 °F 41.0 °F 24% 29.96 in 10.0 mi WNW 24.2 mph 33.4 mph N/A   Clear
8:55 PM 80.6 °F 41.0 °F 24% 29.96 in 10.0 mi West 23.0 mph 35.7 mph N/A   Clear
9:15 PM 78.8 °F 41.0 °F 26% 29.96 in 10.0 mi West 26.5 mph 32.2 mph N/A   Clear
9:55 PM 78.8 °F 39.2 °F 24% 29.97 in 10.0 mi West 23.0 mph 34.5 mph N/A   Clear
10:15 PM 78.8 °F 37.4 °F 23% 29.97 in 10.0 mi West 26.5 mph 32.2 mph N/A   Clear
10:35 PM 78.8 °F 35.6 °F 21% 29.97 in 10.0 mi West 25.3 mph 28.8 mph N/A   Clear
10:55 PM 78.8 °F 33.8 °F 20% 29.97 in 10.0 mi West 27.6 mph 33.4 mph N/A   Clear
11:15 PM 78.8 °F 33.8 °F 20% 29.97 in 10.0 mi West 26.5 mph 32.2 mph N/A   Clear
11:35 PM 78.8 °F 32.0 °F 18% 29.96 in 10.0 mi West 27.6 mph 33.4 mph N/A   Clear
11:55 PM 77.0 °F 32.0 °F 19% 29.97 in 10.0 mi West 24.2 mph 32.2 mph N/A   Clear